createdAt,value
2018-10-02T00:00:58.221Z,1015.37
2018-10-02T00:01:58.250Z,1015.32
2018-10-02T00:02:58.247Z,1015.30
2018-10-02T00:03:58.226Z,1015.30
2018-10-02T00:04:58.264Z,1015.27
2018-10-02T00:05:58.281Z,1015.23
2018-10-02T00:06:58.234Z,1015.20
2018-10-02T00:07:58.311Z,1015.22
2018-10-02T00:08:58.250Z,1015.23
2018-10-02T00:09:58.244Z,1015.26
2018-10-02T00:10:58.226Z,1015.22
2018-10-02T00:11:58.224Z,1015.22
2018-10-02T00:12:58.235Z,1015.22
2018-10-02T00:13:58.245Z,1015.20
2018-10-02T00:14:58.231Z,1015.18
2018-10-02T00:15:58.220Z,1015.19
2018-10-02T00:16:58.218Z,1015.19
2018-10-02T00:17:58.224Z,1015.16
2018-10-02T00:18:58.227Z,1015.13
2018-10-02T00:19:58.217Z,1015.10
2018-10-02T00:20:58.256Z,1015.12
2018-10-02T00:21:58.243Z,1015.07
2018-10-02T00:22:58.243Z,1015.07
2018-10-02T00:23:58.231Z,1015.12
2018-10-02T00:24:58.217Z,1015.11
2018-10-02T00:25:58.254Z,1015.09
2018-10-02T00:26:58.226Z,1015.08
2018-10-02T00:27:58.208Z,1015.09
2018-10-02T00:28:58.265Z,1015.06
2018-10-02T00:29:58.240Z,1015.09
2018-10-02T00:30:58.214Z,1015.11
2018-10-02T00:31:58.377Z,1015.12
2018-10-02T00:32:58.220Z,1015.13
2018-10-02T00:33:58.242Z,1015.09
2018-10-02T00:34:58.228Z,1015.08
2018-10-02T00:35:58.240Z,1015.06
2018-10-02T00:36:58.256Z,1015.02
2018-10-02T00:37:58.243Z,1014.97
2018-10-02T00:38:58.227Z,1014.99
2018-10-02T00:39:58.211Z,1014.97
2018-10-02T00:40:58.236Z,1014.91
2018-10-02T00:41:58.216Z,1014.91
2018-10-02T00:42:58.211Z,1014.98
2018-10-02T00:43:58.214Z,1015.03
2018-10-02T00:44:58.239Z,1015.05
2018-10-02T00:45:58.205Z,1015.08
2018-10-02T00:46:58.259Z,1015.07
2018-10-02T00:47:58.204Z,1015.12
2018-10-02T00:48:58.235Z,1015.13
2018-10-02T00:49:58.206Z,1015.08
2018-10-02T00:50:58.228Z,1015.09
2018-10-02T00:51:58.225Z,1015.15
2018-10-02T00:52:58.227Z,1015.14
2018-10-02T00:53:58.240Z,1015.15
2018-10-02T00:54:58.244Z,1015.14
2018-10-02T00:55:58.221Z,1015.13
2018-10-02T00:56:58.207Z,1015.10
2018-10-02T00:57:58.200Z,1015.07
2018-10-02T00:58:58.206Z,1015.06
2018-10-02T00:59:58.195Z,1015.09
2018-10-02T01:00:58.205Z,1015.09
2018-10-02T01:01:58.256Z,1015.01
2018-10-02T01:02:58.197Z,1015.03
2018-10-02T01:03:58.246Z,1015.02
2018-10-02T01:04:58.208Z,1015.05
2018-10-02T01:05:58.224Z,1015.06
2018-10-02T01:06:58.208Z,1015.06
2018-10-02T01:07:58.206Z,1015.08
2018-10-02T01:08:58.204Z,1015.13
2018-10-02T01:09:58.223Z,1015.12
2018-10-02T01:10:58.195Z,1015.10
2018-10-02T01:11:58.206Z,1015.09
2018-10-02T01:12:58.201Z,1015.07
2018-10-02T01:13:58.201Z,1015.05
2018-10-02T01:14:58.194Z,1015.04
2018-10-02T01:15:58.196Z,1015.03
2018-10-02T01:16:58.197Z,1015.04
2018-10-02T01:17:58.233Z,1015.02
2018-10-02T01:18:58.225Z,1015.00
2018-10-02T01:19:58.214Z,1014.96
2018-10-02T01:20:58.187Z,1014.94
2018-10-02T01:21:58.203Z,1014.83
2018-10-02T01:22:58.220Z,1014.83
2018-10-02T01:23:58.201Z,1014.85
2018-10-02T01:24:58.192Z,1014.81
2018-10-02T01:25:58.207Z,1014.85
2018-10-02T01:26:58.210Z,1014.77
2018-10-02T01:27:58.190Z,1014.76
2018-10-02T01:28:58.214Z,1014.80
2018-10-02T01:29:58.203Z,1014.80
2018-10-02T01:30:58.195Z,1014.82
2018-10-02T01:31:58.195Z,1014.73
2018-10-02T01:32:58.195Z,1014.74
2018-10-02T01:33:58.216Z,1014.71
2018-10-02T01:34:58.198Z,1014.75
2018-10-02T01:35:58.188Z,1014.76
2018-10-02T01:36:58.187Z,1014.75
2018-10-02T01:37:58.187Z,1014.73
2018-10-02T01:38:58.221Z,1014.78
2018-10-02T01:39:58.213Z,1014.71
2018-10-02T01:40:58.190Z,1014.69
2018-10-02T01:41:58.215Z,1014.66
2018-10-02T01:42:58.180Z,1014.69
2018-10-02T01:43:58.185Z,1014.68
2018-10-02T01:44:58.195Z,1014.63
2018-10-02T01:45:58.213Z,1014.62
2018-10-02T01:46:58.178Z,1014.62
2018-10-02T01:47:58.188Z,1014.62
2018-10-02T01:48:58.213Z,1014.62
2018-10-02T01:49:58.192Z,1014.62
2018-10-02T01:50:58.211Z,1014.65
2018-10-02T01:51:58.184Z,1014.63
2018-10-02T01:52:58.189Z,1014.68
2018-10-02T01:53:58.185Z,1014.66
2018-10-02T01:54:58.206Z,1014.72
2018-10-02T01:55:58.189Z,1014.70
2018-10-02T01:56:58.223Z,1014.71
2018-10-02T01:57:58.204Z,1014.67
2018-10-02T01:58:58.186Z,1014.62
2018-10-02T01:59:58.188Z,1014.57
2018-10-02T02:00:58.208Z,1014.60
2018-10-02T02:01:58.181Z,1014.63
2018-10-02T02:02:58.176Z,1014.65
2018-10-02T02:03:58.175Z,1014.69
2018-10-02T02:04:58.227Z,1014.74
2018-10-02T02:05:58.204Z,1014.73
2018-10-02T02:06:58.192Z,1014.68
2018-10-02T02:07:58.177Z,1014.60
2018-10-02T02:08:58.177Z,1014.54
2018-10-02T02:09:58.266Z,1014.56
2018-10-02T02:10:58.178Z,1014.54
2018-10-02T02:11:58.188Z,1014.52
2018-10-02T02:12:58.208Z,1014.51
2018-10-02T02:13:58.210Z,1014.46
2018-10-02T02:14:58.202Z,1014.53
2018-10-02T02:15:58.182Z,1014.46
2018-10-02T02:16:58.226Z,1014.49
2018-10-02T02:17:58.183Z,1014.46
2018-10-02T02:18:58.227Z,1014.41
2018-10-02T02:19:58.188Z,1014.43
2018-10-02T02:20:58.195Z,1014.35
2018-10-02T02:21:58.204Z,1014.31
2018-10-02T02:22:58.226Z,1014.32
2018-10-02T02:23:58.209Z,1014.28
2018-10-02T02:24:58.180Z,1014.24
2018-10-02T02:25:58.201Z,1014.24
2018-10-02T02:26:58.193Z,1014.22
2018-10-02T02:27:58.234Z,1014.20
2018-10-02T02:28:58.321Z,1014.21
2018-10-02T02:29:58.181Z,1014.23
2018-10-02T02:30:58.175Z,1014.17
2018-10-02T02:31:58.170Z,1014.16
2018-10-02T02:32:58.205Z,1014.16
2018-10-02T02:33:58.188Z,1014.16
2018-10-02T02:34:58.201Z,1014.13
2018-10-02T02:35:58.180Z,1014.12
2018-10-02T02:36:58.173Z,1014.09
2018-10-02T02:37:58.178Z,1014.14
2018-10-02T02:38:58.179Z,1014.09
2018-10-02T02:39:58.185Z,1014.15
2018-10-02T02:40:58.205Z,1014.12
2018-10-02T02:41:58.187Z,1014.15
2018-10-02T02:42:58.195Z,1014.15
2018-10-02T02:43:58.181Z,1014.12
2018-10-02T02:44:58.188Z,1014.08
2018-10-02T02:45:58.186Z,1014.10
2018-10-02T02:46:58.181Z,1014.09
2018-10-02T02:47:58.220Z,1014.09
2018-10-02T02:48:58.222Z,1014.09
2018-10-02T02:49:58.179Z,1014.09
2018-10-02T02:50:58.191Z,1014.07
2018-10-02T02:51:58.194Z,1014.08
2018-10-02T02:52:58.255Z,1014.07
2018-10-02T02:53:58.192Z,1014.05
2018-10-02T02:54:58.176Z,1014.00
2018-10-02T02:55:58.225Z,1014.05
2018-10-02T02:56:58.178Z,1013.99
2018-10-02T02:57:58.164Z,1013.92
2018-10-02T02:58:58.188Z,1013.93
2018-10-02T02:59:58.173Z,1013.88
2018-10-02T03:00:58.191Z,1013.84
2018-10-02T03:01:58.198Z,1013.85
2018-10-02T03:02:58.164Z,1013.92
2018-10-02T03:03:58.170Z,1013.88
2018-10-02T03:04:58.191Z,1013.84
2018-10-02T03:05:58.162Z,1013.81
2018-10-02T03:06:58.167Z,1013.81
2018-10-02T03:07:58.171Z,1013.81
2018-10-02T03:08:58.183Z,1013.77
2018-10-02T03:09:58.191Z,1013.73
2018-10-02T03:10:58.210Z,1013.68
2018-10-02T03:11:58.181Z,1013.65
2018-10-02T03:12:58.195Z,1013.64
2018-10-02T03:13:58.182Z,1013.64
2018-10-02T03:14:58.172Z,1013.68
2018-10-02T03:15:58.176Z,1013.60
2018-10-02T03:16:58.243Z,1013.61
2018-10-02T03:17:58.177Z,1013.57
2018-10-02T03:18:58.170Z,1013.53
2018-10-02T03:19:58.181Z,1013.48
2018-10-02T03:20:58.173Z,1013.47
2018-10-02T03:21:58.218Z,1013.51
2018-10-02T03:22:58.177Z,1013.52
2018-10-02T03:23:58.184Z,1013.48
2018-10-02T03:24:58.193Z,1013.46
2018-10-02T03:25:58.158Z,1013.45
2018-10-02T03:26:58.172Z,1013.41
2018-10-02T03:27:58.198Z,1013.43
2018-10-02T03:28:58.188Z,1013.44
2018-10-02T03:29:58.167Z,1013.39
2018-10-02T03:30:58.193Z,1013.35
2018-10-02T03:31:58.184Z,1013.35
2018-10-02T03:32:58.183Z,1013.36
2018-10-02T03:33:58.175Z,1013.39
2018-10-02T03:34:58.163Z,1013.38
2018-10-02T03:35:58.168Z,1013.37
2018-10-02T03:36:58.174Z,1013.32
2018-10-02T03:37:58.238Z,1013.34
2018-10-02T03:38:58.217Z,1013.29
2018-10-02T03:39:58.222Z,1013.24
2018-10-02T03:40:58.190Z,1013.27
2018-10-02T03:41:58.180Z,1013.33
2018-10-02T03:42:58.161Z,1013.30
2018-10-02T03:43:58.190Z,1013.31
2018-10-02T03:44:58.164Z,1013.31
2018-10-02T03:45:58.172Z,1013.31
2018-10-02T03:46:58.157Z,1013.29
2018-10-02T03:47:58.160Z,1013.28
2018-10-02T03:48:58.288Z,1013.19
2018-10-02T03:49:58.177Z,1013.19
2018-10-02T03:50:58.196Z,1013.15
2018-10-02T03:51:58.164Z,1013.11
2018-10-02T03:52:58.196Z,1013.10
2018-10-02T03:53:58.169Z,1013.07
2018-10-02T03:54:58.169Z,1013.06
2018-10-02T03:55:58.164Z,1013.09
2018-10-02T03:56:58.192Z,1013.14
2018-10-02T03:57:58.164Z,1013.10
2018-10-02T03:58:58.157Z,1013.11
2018-10-02T03:59:58.180Z,1013.08
2018-10-02T04:00:58.183Z,1013.07
2018-10-02T04:01:58.193Z,1013.11
2018-10-02T04:02:58.184Z,1013.08
2018-10-02T04:03:58.166Z,1013.00
2018-10-02T04:04:58.240Z,1012.98
2018-10-02T04:05:58.209Z,1013.00
2018-10-02T04:06:58.174Z,1012.97
2018-10-02T04:07:58.155Z,1012.94
2018-10-02T04:08:58.161Z,1012.91
2018-10-02T04:09:58.158Z,1012.89
2018-10-02T04:10:58.169Z,1012.89
2018-10-02T04:11:58.190Z,1012.87
2018-10-02T04:12:58.176Z,1012.85
2018-10-02T04:13:58.163Z,1012.80
2018-10-02T04:14:58.181Z,1012.81
2018-10-02T04:15:58.163Z,1012.75
2018-10-02T04:16:58.186Z,1012.69
2018-10-02T04:17:58.174Z,1012.70
2018-10-02T04:18:58.188Z,1012.61
2018-10-02T04:19:58.158Z,1012.58
2018-10-02T04:20:58.161Z,1012.59
2018-10-02T04:21:58.161Z,1012.55
2018-10-02T04:22:58.173Z,1012.54
2018-10-02T04:23:58.191Z,1012.60
2018-10-02T04:24:58.163Z,1012.63
2018-10-02T04:25:58.177Z,1012.63
2018-10-02T04:26:58.174Z,1012.63
2018-10-02T04:27:58.239Z,1012.67
2018-10-02T04:28:58.161Z,1012.66
2018-10-02T04:29:58.185Z,1012.71
2018-10-02T04:30:58.167Z,1012.71
2018-10-02T04:31:58.157Z,1012.70
2018-10-02T04:32:58.153Z,1012.68
2018-10-02T04:33:58.225Z,1012.66
2018-10-02T04:34:58.168Z,1012.69
2018-10-02T04:35:58.158Z,1012.67
2018-10-02T04:36:58.189Z,1012.59
2018-10-02T04:37:58.164Z,1012.57
2018-10-02T04:38:58.156Z,1012.49
2018-10-02T04:39:58.171Z,1012.52
2018-10-02T04:40:58.150Z,1012.58
2018-10-02T04:41:58.167Z,1012.54
2018-10-02T04:42:58.174Z,1012.61
2018-10-02T04:43:58.171Z,1012.59
2018-10-02T04:44:58.162Z,1012.59
2018-10-02T04:45:58.183Z,1012.61
2018-10-02T04:46:58.168Z,1012.62
2018-10-02T04:47:58.173Z,1012.59
2018-10-02T04:48:58.164Z,1012.57
2018-10-02T04:49:58.205Z,1012.53
2018-10-02T04:50:58.156Z,1012.49
2018-10-02T04:51:58.177Z,1012.52
2018-10-02T04:52:58.171Z,1012.48
2018-10-02T04:53:58.169Z,1012.49
2018-10-02T04:54:58.185Z,1012.48
2018-10-02T04:55:58.277Z,1012.45
2018-10-02T04:56:58.154Z,1012.49
2018-10-02T04:57:58.158Z,1012.49
2018-10-02T04:58:58.193Z,1012.44
2018-10-02T04:59:58.162Z,1012.43
2018-10-02T05:00:58.182Z,1012.37
2018-10-02T05:01:58.189Z,1012.37
2018-10-02T05:02:58.179Z,1012.35
2018-10-02T05:03:58.197Z,1012.36
2018-10-02T05:04:58.154Z,1012.37
2018-10-02T05:05:58.162Z,1012.36
2018-10-02T05:06:58.150Z,1012.38
2018-10-02T05:07:58.156Z,1012.38
2018-10-02T05:08:58.196Z,1012.38
2018-10-02T05:09:58.177Z,1012.41
2018-10-02T05:10:58.190Z,1012.41
2018-10-02T05:11:58.166Z,1012.38
2018-10-02T05:12:58.152Z,1012.40
2018-10-02T05:13:58.166Z,1012.36
2018-10-02T05:14:58.158Z,1012.39
2018-10-02T05:15:58.173Z,1012.36
2018-10-02T05:16:58.179Z,1012.32
2018-10-02T05:17:58.155Z,1012.32
2018-10-02T05:18:58.154Z,1012.35
2018-10-02T05:19:58.158Z,1012.29
2018-10-02T05:20:58.184Z,1012.29
2018-10-02T05:21:58.160Z,1012.29
2018-10-02T05:22:58.153Z,1012.27
2018-10-02T05:23:58.174Z,1012.28
2018-10-02T05:24:58.152Z,1012.23
2018-10-02T05:25:58.179Z,1012.20
2018-10-02T05:26:58.170Z,1012.22
2018-10-02T05:27:58.158Z,1012.20
2018-10-02T05:28:58.183Z,1012.22
2018-10-02T05:29:58.150Z,1012.21
2018-10-02T05:30:58.159Z,1012.17
2018-10-02T05:31:58.192Z,1012.19
2018-10-02T05:32:58.154Z,1012.15
2018-10-02T05:33:58.204Z,1012.18
2018-10-02T05:34:58.218Z,1012.19
2018-10-02T05:35:58.184Z,1012.21
2018-10-02T05:36:58.170Z,1012.17
2018-10-02T05:37:58.158Z,1012.15
2018-10-02T05:38:58.175Z,1012.13
2018-10-02T05:39:58.173Z,1012.10
2018-10-02T05:40:58.224Z,1012.10
2018-10-02T05:41:58.164Z,1012.06
2018-10-02T05:42:58.172Z,1012.08
2018-10-02T05:43:58.162Z,1012.09
2018-10-02T05:44:58.216Z,1012.11
2018-10-02T05:45:58.172Z,1012.04
2018-10-02T05:46:58.191Z,1012.09
2018-10-02T05:47:58.151Z,1012.06
2018-10-02T05:48:58.239Z,1012.01
2018-10-02T05:49:58.164Z,1012.04
2018-10-02T05:50:58.162Z,1012.04
2018-10-02T05:51:58.156Z,1012.06
2018-10-02T05:52:58.156Z,1012.02
2018-10-02T05:53:58.153Z,1012.01
2018-10-02T05:54:58.158Z,1012.03
2018-10-02T05:55:58.187Z,1012.01
2018-10-02T05:56:58.165Z,1012.00
2018-10-02T05:57:58.195Z,1011.97
2018-10-02T05:58:58.167Z,1012.02
2018-10-02T05:59:58.181Z,1011.99
2018-10-02T06:00:58.149Z,1012.02
2018-10-02T06:01:58.188Z,1011.97
2018-10-02T06:02:58.202Z,1011.96
2018-10-02T06:03:58.262Z,1011.93
2018-10-02T06:04:58.173Z,1011.93
2018-10-02T06:05:58.151Z,1011.91
2018-10-02T06:06:58.152Z,1011.88
2018-10-02T06:07:58.156Z,1011.90
2018-10-02T06:08:58.185Z,1011.96
2018-10-02T06:09:58.195Z,1011.93
2018-10-02T06:10:58.174Z,1011.96
2018-10-02T06:11:58.152Z,1011.90
2018-10-02T06:12:58.163Z,1011.87
2018-10-02T06:13:58.162Z,1011.85
2018-10-02T06:14:58.207Z,1011.80
2018-10-02T06:15:58.164Z,1011.79
2018-10-02T06:16:58.180Z,1011.76
2018-10-02T06:17:58.203Z,1011.81
2018-10-02T06:18:58.167Z,1011.82
2018-10-02T06:19:58.183Z,1011.82
2018-10-02T06:20:58.252Z,1011.84
2018-10-02T06:21:58.154Z,1011.74
2018-10-02T06:22:58.191Z,1011.76
2018-10-02T06:23:58.171Z,1011.72
2018-10-02T06:24:58.176Z,1011.70
2018-10-02T06:25:58.180Z,1011.65
2018-10-02T06:26:58.166Z,1011.59
2018-10-02T06:27:58.158Z,1011.56
2018-10-02T06:28:58.177Z,1011.53
2018-10-02T06:29:58.176Z,1011.40
2018-10-02T06:30:58.157Z,1011.42
2018-10-02T06:31:58.154Z,1011.44
2018-10-02T06:32:58.184Z,1011.40
2018-10-02T06:33:58.188Z,1011.47
2018-10-02T06:34:58.163Z,1011.42
2018-10-02T06:35:58.167Z,1011.45
2018-10-02T06:36:58.186Z,1011.42
2018-10-02T06:37:58.353Z,1011.38
2018-10-02T06:38:58.258Z,1011.40
2018-10-02T06:39:58.194Z,1011.36
2018-10-02T06:40:58.166Z,1011.35
2018-10-02T06:41:58.409Z,1011.34
2018-10-02T06:42:58.167Z,1011.30
2018-10-02T06:43:58.191Z,1011.30
2018-10-02T06:44:58.248Z,1011.29
2018-10-02T06:45:58.183Z,1011.28
2018-10-02T06:46:58.170Z,1011.27
2018-10-02T06:47:58.170Z,1011.36
2018-10-02T06:48:58.167Z,1011.38
2018-10-02T06:49:58.151Z,1011.42
2018-10-02T06:50:58.290Z,1011.44
2018-10-02T06:51:59.026Z,1011.38
2018-10-02T06:52:58.165Z,1011.37
2018-10-02T06:53:58.154Z,1011.30
2018-10-02T06:54:58.927Z,1011.28
2018-10-02T06:55:58.161Z,1011.29
2018-10-02T06:56:58.243Z,1011.29
2018-10-02T06:57:58.170Z,1011.29
2018-10-02T06:58:58.168Z,1011.27
2018-10-02T06:59:58.161Z,1011.24
2018-10-02T07:00:58.175Z,1011.23
2018-10-02T07:01:58.188Z,1011.23
2018-10-02T07:02:58.201Z,1011.25
2018-10-02T07:03:58.149Z,1011.29
2018-10-02T07:04:58.191Z,1011.30
2018-10-02T07:05:58.199Z,1011.29
2018-10-02T07:06:58.185Z,1011.26
2018-10-02T07:07:58.178Z,1011.28
2018-10-02T07:08:58.225Z,1011.23
2018-10-02T07:09:58.172Z,1011.15
2018-10-02T07:10:58.191Z,1011.10
2018-10-02T07:11:58.194Z,1011.11
2018-10-02T07:12:58.252Z,1011.10
2018-10-02T07:13:58.392Z,1011.09
2018-10-02T07:14:58.309Z,1011.11
2018-10-02T07:15:58.333Z,1011.07
2018-10-02T07:16:58.181Z,1011.09
2018-10-02T07:17:58.805Z,1011.09
2018-10-02T07:18:58.370Z,1011.10
2018-10-02T07:19:58.416Z,1011.08
2018-10-02T07:20:58.618Z,1011.13
2018-10-02T07:21:58.325Z,1011.19
2018-10-02T07:22:58.720Z,1011.21
2018-10-02T07:23:58.935Z,1011.19
2018-10-02T07:24:58.274Z,1011.16
2018-10-02T07:25:58.165Z,1011.12
2018-10-02T07:26:58.288Z,1011.13
2018-10-02T07:27:58.496Z,1011.07
2018-10-02T07:29:58.299Z,1011.09
2018-10-02T07:30:58.334Z,1011.02
2018-10-02T07:31:58.331Z,1011.00
2018-10-02T07:32:58.251Z,1011.01
2018-10-02T07:33:58.290Z,1010.99
2018-10-02T07:34:59.253Z,1010.98
2018-10-02T07:36:19.305Z,1011.01
2018-10-02T07:36:58.471Z,1010.89
2018-10-02T07:37:58.285Z,1010.92
2018-10-02T07:39:05.019Z,1010.89
2018-10-02T07:39:58.245Z,1010.91
2018-10-02T07:40:58.316Z,1010.91
2018-10-02T07:42:19.356Z,1010.84
2018-10-02T07:42:58.307Z,1010.97
2018-10-02T07:43:58.241Z,1010.92
2018-10-02T07:44:58.372Z,1010.86
2018-10-02T07:45:58.282Z,1010.92
2018-10-02T07:46:58.249Z,1010.77
2018-10-02T07:48:19.401Z,1010.80
2018-10-02T07:48:58.254Z,1010.80
2018-10-02T07:49:58.263Z,1010.79
2018-10-02T07:50:58.342Z,1010.70
2018-10-02T07:51:58.245Z,1010.74
2018-10-02T07:52:58.312Z,1010.77
2018-10-02T07:54:22.251Z,1010.80
2018-10-02T07:55:26.849Z,1010.84
2018-10-02T07:55:58.571Z,1010.80
2018-10-02T07:56:58.391Z,1010.75
2018-10-02T07:57:59.188Z,1010.69
2018-10-02T07:59:19.271Z,1010.65
2018-10-02T07:59:58.315Z,1010.62
2018-10-02T08:00:58.296Z,1010.63
2018-10-02T08:01:58.249Z,1010.58
2018-10-02T08:02:58.335Z,1010.63
2018-10-02T08:03:58.739Z,1010.59
2018-10-02T08:05:19.515Z,1010.59
2018-10-02T08:05:58.291Z,1010.62
2018-10-02T08:06:58.600Z,1010.44
2018-10-02T08:07:58.433Z,1010.50
2018-10-02T08:08:58.326Z,1010.58
2018-10-02T08:09:58.268Z,1010.53
2018-10-02T08:11:21.105Z,1010.57
2018-10-02T08:11:58.323Z,1010.64
2018-10-02T08:12:58.429Z,1010.65
2018-10-02T08:13:58.313Z,1010.53
2018-10-02T08:14:58.312Z,1010.51
2018-10-02T08:15:58.271Z,1010.48
2018-10-02T08:17:19.287Z,1010.49
2018-10-02T08:17:58.415Z,1010.52
2018-10-02T08:18:58.262Z,1010.45
2018-10-02T08:19:58.345Z,1010.48
2018-10-02T08:20:58.460Z,1010.50
2018-10-02T08:21:58.311Z,1010.47
2018-10-02T08:23:20.994Z,1010.51
2018-10-02T08:23:58.406Z,1010.51
2018-10-02T08:24:59.228Z,1010.49
2018-10-02T08:25:58.523Z,1010.44
2018-10-02T08:26:58.678Z,1010.49
2018-10-02T08:27:58.327Z,1010.43
2018-10-02T08:29:19.380Z,1010.39
2018-10-02T08:29:58.446Z,1010.38
2018-10-02T08:30:58.331Z,1010.36
2018-10-02T08:31:58.339Z,1010.32
2018-10-02T08:33:00.296Z,1010.34
2018-10-02T08:33:58.440Z,1010.30
2018-10-02T08:35:20.138Z,1010.28
2018-10-02T08:35:58.907Z,1010.27
2018-10-02T08:36:58.297Z,1010.29
2018-10-02T08:37:58.481Z,1010.37
2018-10-02T08:39:00.397Z,1010.21
2018-10-02T08:39:58.891Z,1010.21
2018-10-02T08:41:19.804Z,1010.18
2018-10-02T08:41:58.343Z,1010.15
2018-10-02T08:42:58.360Z,1010.20
2018-10-02T08:44:05.649Z,1010.14
2018-10-02T08:44:58.682Z,1010.17
2018-10-02T08:45:58.418Z,1010.20
2018-10-02T08:47:19.413Z,1010.16
2018-10-02T08:47:58.386Z,1010.21
2018-10-02T08:48:58.349Z,1010.22
2018-10-02T08:49:58.276Z,1010.18
2018-10-02T08:50:58.401Z,1010.23
2018-10-02T08:51:58.460Z,1010.19
2018-10-02T08:53:20.047Z,1010.21
2018-10-02T08:53:58.404Z,1010.16
2018-10-02T08:54:58.774Z,1010.18
2018-10-02T08:55:58.391Z,1010.11
2018-10-02T08:56:59.210Z,1010.08
2018-10-02T08:57:58.487Z,1010.07
2018-10-02T08:59:19.385Z,1010.04
2018-10-02T08:59:58.400Z,1010.00
2018-10-02T09:00:58.459Z,1010.07
2018-10-02T09:01:58.312Z,1010.08
2018-10-02T09:02:58.374Z,1010.12
2018-10-02T09:03:58.316Z,1010.14
2018-10-02T09:05:19.289Z,1010.13
2018-10-02T09:05:58.335Z,1010.16
2018-10-02T09:07:01.837Z,1010.12
2018-10-02T09:07:58.699Z,1010.15
2018-10-02T09:08:58.707Z,1010.12
2018-10-02T09:09:58.414Z,1010.15
2018-10-02T09:11:19.329Z,1010.08
2018-10-02T09:11:58.575Z,1010.13
2018-10-02T09:12:58.983Z,1010.18
2018-10-02T09:13:58.840Z,1010.15
2018-10-02T09:14:58.354Z,1010.09
2018-10-02T09:15:58.592Z,1010.12
2018-10-02T09:17:19.298Z,1010.09
2018-10-02T09:17:58.318Z,1010.13
2018-10-02T09:18:58.424Z,1010.16
2018-10-02T09:19:58.324Z,1010.05
2018-10-02T09:20:58.347Z,1010.01
2018-10-02T09:21:58.373Z,1009.96
2018-10-02T09:23:19.296Z,1009.96
2018-10-02T09:23:58.353Z,1009.86
2018-10-02T09:24:58.408Z,1009.87
2018-10-02T09:25:58.375Z,1009.80
2018-10-02T09:26:58.396Z,1009.86
2018-10-02T09:27:58.336Z,1009.88
2018-10-02T09:29:19.336Z,1009.83
2018-10-02T09:29:58.302Z,1009.83
2018-10-02T09:30:58.671Z,1009.85
2018-10-02T09:31:58.317Z,1009.83
2018-10-02T09:32:58.305Z,1009.79
2018-10-02T09:33:58.359Z,1009.86
2018-10-02T09:35:19.292Z,1009.82
2018-10-02T09:35:58.349Z,1009.74
2018-10-02T09:36:58.414Z,1009.79
2018-10-02T09:37:58.299Z,1009.76
2018-10-02T09:38:58.399Z,1009.79
2018-10-02T09:39:58.373Z,1009.78
2018-10-02T09:41:19.406Z,1009.80
2018-10-02T09:41:58.348Z,1009.72
2018-10-02T09:42:58.372Z,1009.79
2018-10-02T09:43:58.312Z,1009.74
2018-10-02T09:44:58.937Z,1009.79
2018-10-02T09:45:58.382Z,1009.78
2018-10-02T09:47:19.307Z,1009.78
2018-10-02T09:47:58.951Z,1009.75
2018-10-02T09:48:58.397Z,1009.79
2018-10-02T09:49:58.451Z,1009.81
2018-10-02T09:50:58.282Z,1009.77
2018-10-02T09:51:58.341Z,1009.75
2018-10-02T09:53:19.298Z,1009.68
2018-10-02T09:53:58.322Z,1009.69
2018-10-02T09:54:59.122Z,1009.67
2018-10-02T09:55:58.322Z,1009.66
2018-10-02T09:56:58.337Z,1009.76
2018-10-02T09:57:58.297Z,1009.80
2018-10-02T09:59:19.385Z,1009.69
2018-10-02T09:59:58.317Z,1009.71
2018-10-02T10:00:58.342Z,1009.70
2018-10-02T10:01:58.327Z,1009.67
2018-10-02T10:02:58.335Z,1009.71
2018-10-02T10:03:58.306Z,1009.64
2018-10-02T10:05:19.359Z,1009.63
2018-10-02T10:05:58.322Z,1009.71
2018-10-02T10:06:58.323Z,1009.68
2018-10-02T10:07:58.306Z,1009.73
2018-10-02T10:08:58.307Z,1009.71
2018-10-02T10:09:58.311Z,1009.69
2018-10-02T10:11:19.325Z,1009.69
2018-10-02T10:11:58.294Z,1009.69
2018-10-02T10:12:58.305Z,1009.63
2018-10-02T10:13:58.313Z,1009.61
2018-10-02T10:14:58.296Z,1009.71
2018-10-02T10:15:58.332Z,1009.70
2018-10-02T10:17:19.425Z,1009.67
2018-10-02T10:17:58.340Z,1009.74
2018-10-02T10:18:58.388Z,1009.73
2018-10-02T10:19:58.282Z,1009.80
2018-10-02T10:20:58.358Z,1009.80
2018-10-02T10:21:58.344Z,1009.78
2018-10-02T10:23:19.300Z,1009.76
2018-10-02T10:23:58.315Z,1009.72
2018-10-02T10:24:58.307Z,1009.67
2018-10-02T10:25:58.312Z,1009.77
2018-10-02T10:26:58.346Z,1009.79
2018-10-02T10:27:58.312Z,1009.78
2018-10-02T10:29:19.375Z,1009.77
2018-10-02T10:29:58.336Z,1009.75
2018-10-02T10:30:58.293Z,1009.75
2018-10-02T10:31:58.290Z,1009.84
2018-10-02T10:32:58.311Z,1009.76
2018-10-02T10:33:58.318Z,1009.78
2018-10-02T10:35:19.308Z,1009.80
2018-10-02T10:35:58.805Z,1009.80
2018-10-02T10:36:58.325Z,1009.84
2018-10-02T10:37:58.839Z,1009.77
2018-10-02T10:38:58.382Z,1009.87
2018-10-02T10:39:58.381Z,1009.74
2018-10-02T10:41:19.374Z,1009.73
2018-10-02T10:41:58.344Z,1009.75
2018-10-02T10:42:58.326Z,1009.77
2018-10-02T10:43:58.322Z,1009.76
2018-10-02T10:44:58.331Z,1009.64
2018-10-02T10:45:58.310Z,1009.73
2018-10-02T10:47:19.319Z,1009.68
2018-10-02T10:47:58.299Z,1009.67
2018-10-02T10:48:58.319Z,1009.59
2018-10-02T10:49:58.342Z,1009.62
2018-10-02T10:50:58.297Z,1009.64
2018-10-02T10:51:58.935Z,1009.73
2018-10-02T10:53:19.330Z,1009.78
2018-10-02T10:53:58.341Z,1009.75
2018-10-02T10:54:58.295Z,1009.79
2018-10-02T10:55:58.305Z,1009.66
2018-10-02T10:56:58.320Z,1009.68
2018-10-02T10:57:58.352Z,1009.60
2018-10-02T10:59:19.319Z,1009.68
2018-10-02T10:59:58.368Z,1009.63
2018-10-02T11:00:58.338Z,1009.59
2018-10-02T11:01:58.326Z,1009.59
2018-10-02T11:02:58.388Z,1009.59
2018-10-02T11:03:58.337Z,1009.54
2018-10-02T11:05:20.081Z,1009.58
2018-10-02T11:05:58.331Z,1009.59
2018-10-02T11:06:58.357Z,1009.61
2018-10-02T11:07:58.456Z,1009.54
2018-10-02T11:08:58.359Z,1009.50
2018-10-02T11:09:58.313Z,1009.50
2018-10-02T11:11:22.172Z,1009.45
2018-10-02T11:11:58.368Z,1009.49
2018-10-02T11:12:58.346Z,1009.57
2018-10-02T11:13:58.423Z,1009.54
2018-10-02T11:14:58.376Z,1009.52
2018-10-02T11:15:58.362Z,1009.47
2018-10-02T11:17:19.443Z,1009.41
2018-10-02T11:17:59.067Z,1009.41
2018-10-02T11:18:58.778Z,1009.40
2018-10-02T11:19:58.361Z,1009.32
2018-10-02T11:20:58.405Z,1009.31
2018-10-02T11:21:58.417Z,1009.39
2018-10-02T11:23:19.418Z,1009.26
2018-10-02T11:23:58.417Z,1009.29
2018-10-02T11:24:58.435Z,1009.33
2018-10-02T11:25:59.213Z,1009.32
2018-10-02T11:26:58.432Z,1009.36
2018-10-02T11:27:58.449Z,1009.37
2018-10-02T11:29:19.363Z,1009.30
2018-10-02T11:29:59.719Z,1009.23
2018-10-02T11:30:58.359Z,1009.33
2018-10-02T11:31:58.360Z,1009.35
2018-10-02T11:33:01.983Z,1009.26
2018-10-02T11:33:59.776Z,1009.34
2018-10-02T11:35:19.366Z,1009.32
2018-10-02T11:35:58.350Z,1009.29
2018-10-02T11:36:58.354Z,1009.29
2018-10-02T11:37:58.363Z,1009.30
2018-10-02T11:38:59.705Z,1009.27
2018-10-02T11:39:58.444Z,1009.24
2018-10-02T11:41:19.360Z,1009.25
2018-10-02T11:41:58.807Z,1009.29
2018-10-02T11:42:58.400Z,1009.27
2018-10-02T11:43:58.457Z,1009.25
2018-10-02T11:44:58.603Z,1009.18
2018-10-02T11:45:58.407Z,1009.17
2018-10-02T11:47:19.407Z,1009.14
2018-10-02T11:47:59.013Z,1009.10
2018-10-02T11:48:58.423Z,1009.14
2018-10-02T11:49:59.284Z,1009.08
2018-10-02T11:50:58.552Z,1009.14
2018-10-02T11:51:59.322Z,1009.09
2018-10-02T11:53:19.413Z,1009.11
2018-10-02T11:53:58.353Z,1009.05
2018-10-02T11:54:58.367Z,1009.08
2018-10-02T11:55:58.369Z,1009.08
2018-10-02T11:56:58.425Z,1009.05
2018-10-02T11:57:58.399Z,1009.02
2018-10-02T11:59:19.403Z,1009.03
2018-10-02T11:59:58.368Z,1008.92
2018-10-02T12:00:58.566Z,1009.02
2018-10-02T12:01:58.368Z,1008.97
2018-10-02T12:02:58.388Z,1008.98
2018-10-02T12:03:58.387Z,1008.98
2018-10-02T12:05:19.410Z,1008.93
2018-10-02T12:05:58.371Z,1008.94
2018-10-02T12:06:58.369Z,1008.96